sensor_id;sensor_type;location;lat;lon;timestamp;pressure;altitude;pressure_sealevel;temperature;humidity
71105;BME280;58760;48.716;8.962;2023-03-03T00:01:16;96633.44;;;1.26;83.90
71105;BME280;58760;48.716;8.962;2023-03-03T00:03:42;96636.88;;;1.27;83.85
71105;BME280;58760;48.716;8.962;2023-03-03T00:06:10;96634.25;;;1.27;83.32
71105;BME280;58760;48.716;8.962;2023-03-03T00:08:36;96633.16;;;1.18;83.64
71105;BME280;58760;48.716;8.962;2023-03-03T00:11:02;96634.44;;;1.13;84.09
71105;BME280;58760;48.716;8.962;2023-03-03T00:13:30;96641.81;;;1.19;84.04
71105;BME280;58760;48.716;8.962;2023-03-03T00:16:27;96634.09;;;1.17;84.51
71105;BME280;58760;48.716;8.962;2023-03-03T00:18:53;96641.13;;;1.17;84.48
71105;BME280;58760;48.716;8.962;2023-03-03T00:21:27;96635.75;;;1.18;84.51
71105;BME280;58760;48.716;8.962;2023-03-03T00:24:00;96637.31;;;1.21;84.54
71105;BME280;58760;48.716;8.962;2023-03-03T00:26:34;96641.81;;;1.19;84.17
71105;BME280;58760;48.716;8.962;2023-03-03T00:29:01;96643.53;;;1.31;83.51
71105;BME280;58760;48.716;8.962;2023-03-03T00:31:35;96638.13;;;1.21;83.79
71105;BME280;58760;48.716;8.962;2023-03-03T00:36:45;96640.81;;;1.09;84.31
71105;BME280;58760;48.716;8.962;2023-03-03T00:42:16;96650.66;;;1.05;84.07
71105;BME280;58760;48.716;8.962;2023-03-03T00:47:27;96637.28;;;0.86;84.56
71105;BME280;58760;48.716;8.962;2023-03-03T00:49:55;96640.56;;;0.77;84.99
71105;BME280;58760;48.716;8.962;2023-03-03T00:52:26;96640.16;;;0.70;85.35
71105;BME280;58760;48.716;8.962;2023-03-03T00:54:53;96642.81;;;0.58;85.45
71105;BME280;58760;48.716;8.962;2023-03-03T00:57:18;96644.19;;;0.50;85.88
71105;BME280;58760;48.716;8.962;2023-03-03T00:59:43;96635.25;;;0.42;85.82
71105;BME280;58760;48.716;8.962;2023-03-03T01:02:10;96637.69;;;0.32;85.87
71105;BME280;58760;48.716;8.962;2023-03-03T01:04:35;96637.16;;;0.27;86.41
71105;BME280;58760;48.716;8.962;2023-03-03T01:07:01;96645.91;;;0.26;86.78
71105;BME280;58760;48.716;8.962;2023-03-03T01:09:26;96639.47;;;0.19;86.60
71105;BME280;58760;48.716;8.962;2023-03-03T01:11:52;96639.88;;;0.13;86.87
71105;BME280;58760;48.716;8.962;2023-03-03T01:14:17;96637.47;;;0.10;87.36
71105;BME280;58760;48.716;8.962;2023-03-03T01:16:43;96629.59;;;-0.01;87.19
71105;BME280;58760;48.716;8.962;2023-03-03T01:19:08;96629.66;;;-0.03;87.54
71105;BME280;58760;48.716;8.962;2023-03-03T01:21:33;96641.78;;;-0.02;87.76
71105;BME280;58760;48.716;8.962;2023-03-03T01:23:59;96642.84;;;-0.04;88.02
71105;BME280;58760;48.716;8.962;2023-03-03T01:26:24;96644.81;;;-0.08;88.09
71105;BME280;58760;48.716;8.962;2023-03-03T01:28:50;96649.28;;;-0.10;88.10
71105;BME280;58760;48.716;8.962;2023-03-03T01:31:15;96640.97;;;-0.15;88.20
71105;BME280;58760;48.716;8.962;2023-03-03T01:33:40;96645.13;;;-0.12;88.52
71105;BME280;58760;48.716;8.962;2023-03-03T01:36:06;96636.56;;;-0.14;88.78
71105;BME280;58760;48.716;8.962;2023-03-03T01:38:34;96639.28;;;-0.16;88.93
71105;BME280;58760;48.716;8.962;2023-03-03T01:41:01;96630.19;;;-0.23;89.19
71105;BME280;58760;48.716;8.962;2023-03-03T01:43:28;96650.13;;;-0.22;89.36
71105;BME280;58760;48.716;8.962;2023-03-03T01:48:37;96645.34;;;-0.28;89.48
71105;BME280;58760;48.716;8.962;2023-03-03T01:51:16;96638.88;;;-0.35;89.06
71105;BME280;58760;48.716;8.962;2023-03-03T01:53:51;96647.31;;;-0.44;88.52
71105;BME280;58760;48.716;8.962;2023-03-03T01:56:17;96637.38;;;-0.52;88.60
71105;BME280;58760;48.716;8.962;2023-03-03T01:58:44;96637.50;;;-0.53;88.79
71105;BME280;58760;48.716;8.962;2023-03-03T02:01:15;96636.97;;;-0.58;88.74
71105;BME280;58760;48.716;8.962;2023-03-03T02:03:42;96638.34;;;-0.65;89.05
71105;BME280;58760;48.716;8.962;2023-03-03T02:06:14;96635.91;;;-0.68;89.28
71105;BME280;58760;48.716;8.962;2023-03-03T02:08:59;96639.66;;;-0.72;89.12
71105;BME280;58760;48.716;8.962;2023-03-03T02:11:27;96629.25;;;-0.72;89.49
71105;BME280;58760;48.716;8.962;2023-03-03T02:13:54;96627.56;;;-0.73;89.76
71105;BME280;58760;48.716;8.962;2023-03-03T02:16:19;96622.06;;;-0.69;89.93
71105;BME280;58760;48.716;8.962;2023-03-03T02:18:45;96623.41;;;-0.76;90.07
71105;BME280;58760;48.716;8.962;2023-03-03T02:21:15;96626.63;;;-0.85;89.72
71105;BME280;58760;48.716;8.962;2023-03-03T02:23:44;96616.00;;;-0.82;89.94
71105;BME280;58760;48.716;8.962;2023-03-03T02:26:18;96616.50;;;-0.89;89.86
71105;BME280;58760;48.716;8.962;2023-03-03T02:28:47;96620.22;;;-0.93;90.15
71105;BME280;58760;48.716;8.962;2023-03-03T02:31:15;96613.97;;;-0.91;90.42
71105;BME280;58760;48.716;8.962;2023-03-03T02:33:43;96615.66;;;-0.90;90.65
71105;BME280;58760;48.716;8.962;2023-03-03T02:36:13;96614.81;;;-0.90;90.54
71105;BME280;58760;48.716;8.962;2023-03-03T02:39:04;96612.81;;;-0.99;90.37
71105;BME280;58760;48.716;8.962;2023-03-03T02:41:43;96612.31;;;-1.04;90.21
71105;BME280;58760;48.716;8.962;2023-03-03T02:44:17;96622.31;;;-0.98;90.53
71105;BME280;58760;48.716;8.962;2023-03-03T02:46:45;96615.53;;;-1.01;90.19
71105;BME280;58760;48.716;8.962;2023-03-03T02:49:13;96614.47;;;-1.11;89.79
71105;BME280;58760;48.716;8.962;2023-03-03T02:51:39;96614.56;;;-1.13;90.09
71105;BME280;58760;48.716;8.962;2023-03-03T02:54:06;96625.16;;;-1.16;90.21
71105;BME280;58760;48.716;8.962;2023-03-03T02:56:32;96624.13;;;-1.13;90.23
71105;BME280;58760;48.716;8.962;2023-03-03T02:58:58;96622.72;;;-1.04;90.57
71105;BME280;58760;48.716;8.962;2023-03-03T03:01:23;96623.16;;;-0.98;90.46
71105;BME280;58760;48.716;8.962;2023-03-03T03:03:48;96625.34;;;-0.92;90.43
71105;BME280;58760;48.716;8.962;2023-03-03T03:06:14;96622.84;;;-0.93;89.73
71105;BME280;58760;48.716;8.962;2023-03-03T03:08:39;96627.31;;;-0.95;89.39
71105;BME280;58760;48.716;8.962;2023-03-03T03:11:05;96627.31;;;-0.95;89.38
71105;BME280;58760;48.716;8.962;2023-03-03T03:13:31;96631.50;;;-0.93;89.54
71105;BME280;58760;48.716;8.962;2023-03-03T03:15:57;96632.66;;;-0.84;89.72
71105;BME280;58760;48.716;8.962;2023-03-03T03:18:22;96632.16;;;-0.77;90.13
71105;BME280;58760;48.716;8.962;2023-03-03T03:20:48;96630.59;;;-0.67;90.07
71105;BME280;58760;48.716;8.962;2023-03-03T03:23:13;96634.47;;;-0.60;90.01
71105;BME280;58760;48.716;8.962;2023-03-03T03:25:39;96630.94;;;-0.46;89.93
71105;BME280;58760;48.716;8.962;2023-03-03T03:28:10;96629.41;;;-0.36;89.76
71105;BME280;58760;48.716;8.962;2023-03-03T03:30:37;96631.66;;;-0.31;89.24
71105;BME280;58760;48.716;8.962;2023-03-03T03:33:02;96629.28;;;-0.22;88.86
71105;BME280;58760;48.716;8.962;2023-03-03T03:35:28;96629.69;;;-0.15;88.72
71105;BME280;58760;48.716;8.962;2023-03-03T03:37:53;96632.91;;;-0.12;88.77
71105;BME280;58760;48.716;8.962;2023-03-03T03:40:18;96621.34;;;-0.08;88.69
71105;BME280;58760;48.716;8.962;2023-03-03T03:42:44;96630.50;;;-0.02;88.82
71105;BME280;58760;48.716;8.962;2023-03-03T03:45:10;96631.75;;;0.05;89.19
71105;BME280;58760;48.716;8.962;2023-03-03T03:47:40;96623.63;;;0.10;89.23
71105;BME280;58760;48.716;8.962;2023-03-03T03:50:06;96626.81;;;0.13;88.58
71105;BME280;58760;48.716;8.962;2023-03-03T03:52:31;96624.75;;;0.18;88.31
71105;BME280;58760;48.716;8.962;2023-03-03T03:54:56;96620.25;;;0.20;87.93
71105;BME280;58760;48.716;8.962;2023-03-03T03:57:22;96625.38;;;0.22;87.86
71105;BME280;58760;48.716;8.962;2023-03-03T03:59:49;96630.38;;;0.25;87.78
71105;BME280;58760;48.716;8.962;2023-03-03T04:02:14;96630.25;;;0.26;87.95
71105;BME280;58760;48.716;8.962;2023-03-03T04:04:39;96627.53;;;0.28;88.04
71105;BME280;58760;48.716;8.962;2023-03-03T04:07:05;96625.03;;;0.26;88.29
71105;BME280;58760;48.716;8.962;2023-03-03T04:09:30;96626.91;;;0.37;88.76
71105;BME280;58760;48.716;8.962;2023-03-03T04:11:55;96625.03;;;0.39;88.36
71105;BME280;58760;48.716;8.962;2023-03-03T04:14:21;96625.63;;;0.42;88.67
71105;BME280;58760;48.716;8.962;2023-03-03T04:16:46;96616.63;;;0.46;88.63
71105;BME280;58760;48.716;8.962;2023-03-03T04:19:11;96628.13;;;0.44;88.33
71105;BME280;58760;48.716;8.962;2023-03-03T04:21:37;96632.41;;;0.45;88.47
71105;BME280;58760;48.716;8.962;2023-03-03T04:24:02;96625.31;;;0.47;88.59
71105;BME280;58760;48.716;8.962;2023-03-03T04:26:28;96627.88;;;0.60;88.45
71105;BME280;58760;48.716;8.962;2023-03-03T04:28:53;96621.59;;;0.62;88.38
71105;BME280;58760;48.716;8.962;2023-03-03T04:31:18;96629.72;;;0.70;87.99
71105;BME280;58760;48.716;8.962;2023-03-03T04:33:44;96624.94;;;0.64;88.43
71105;BME280;58760;48.716;8.962;2023-03-03T04:36:10;96632.88;;;0.63;88.25
71105;BME280;58760;48.716;8.962;2023-03-03T04:38:36;96630.03;;;0.66;88.63
71105;BME280;58760;48.716;8.962;2023-03-03T04:41:01;96635.38;;;0.64;88.72
71105;BME280;58760;48.716;8.962;2023-03-03T04:43:27;96637.88;;;0.66;88.90
71105;BME280;58760;48.716;8.962;2023-03-03T04:45:52;96635.88;;;0.69;88.92
71105;BME280;58760;48.716;8.962;2023-03-03T04:48:17;96631.78;;;0.78;88.82
71105;BME280;58760;48.716;8.962;2023-03-03T04:50:43;96638.22;;;0.85;87.44
71105;BME280;58760;48.716;8.962;2023-03-03T04:53:08;96636.72;;;0.93;87.10
71105;BME280;58760;48.716;8.962;2023-03-03T04:55:37;96636.09;;;0.66;87.53
71105;BME280;58760;48.716;8.962;2023-03-03T04:58:03;96644.38;;;0.60;88.27
71105;BME280;58760;48.716;8.962;2023-03-03T05:00:29;96647.50;;;0.52;88.77
71105;BME280;58760;48.716;8.962;2023-03-03T05:02:54;96646.91;;;0.49;89.27
71105;BME280;58760;48.716;8.962;2023-03-03T05:05:20;96652.34;;;0.46;89.51
71105;BME280;58760;48.716;8.962;2023-03-03T05:07:45;96654.63;;;0.50;89.79
71105;BME280;58760;48.716;8.962;2023-03-03T05:10:11;96654.41;;;0.53;89.76
71105;BME280;58760;48.716;8.962;2023-03-03T05:12:36;96660.03;;;0.60;89.70
71105;BME280;58760;48.716;8.962;2023-03-03T05:15:02;96647.38;;;0.67;89.89
71105;BME280;58760;48.716;8.962;2023-03-03T05:17:27;96651.63;;;0.80;89.21
71105;BME280;58760;48.716;8.962;2023-03-03T05:19:53;96658.53;;;0.81;88.74
71105;BME280;58760;48.716;8.962;2023-03-03T05:22:21;96657.22;;;1.11;87.35
71105;BME280;58760;48.716;8.962;2023-03-03T05:24:47;96656.41;;;0.86;87.47
71105;BME280;58760;48.716;8.962;2023-03-03T05:27:14;96659.38;;;0.69;88.21
71105;BME280;58760;48.716;8.962;2023-03-03T05:29:39;96652.56;;;1.27;86.39
71105;BME280;58760;48.716;8.962;2023-03-03T05:32:04;96657.97;;;1.13;84.83
71105;BME280;58760;48.716;8.962;2023-03-03T05:34:30;96655.72;;;0.95;85.33
71105;BME280;58760;48.716;8.962;2023-03-03T05:36:55;96649.78;;;0.70;83.82
71105;BME280;58760;48.716;8.962;2023-03-03T05:39:20;96656.13;;;0.29;84.75
71105;BME280;58760;48.716;8.962;2023-03-03T05:41:46;96662.94;;;0.07;86.22
71105;BME280;58760;48.716;8.962;2023-03-03T05:44:11;96662.63;;;0.11;86.96
71105;BME280;58760;48.716;8.962;2023-03-03T05:46:37;96670.22;;;0.27;88.82
71105;BME280;58760;48.716;8.962;2023-03-03T05:49:02;96663.47;;;0.24;88.29
71105;BME280;58760;48.716;8.962;2023-03-03T05:51:27;96676.63;;;0.23;87.78
71105;BME280;58760;48.716;8.962;2023-03-03T05:53:53;96670.34;;;0.25;87.02
71105;BME280;58760;48.716;8.962;2023-03-03T05:56:18;96682.66;;;0.11;87.40
71105;BME280;58760;48.716;8.962;2023-03-03T05:58:44;96683.50;;;0.11;88.60
71105;BME280;58760;48.716;8.962;2023-03-03T06:01:10;96681.53;;;0.15;88.15
71105;BME280;58760;48.716;8.962;2023-03-03T06:03:35;96679.44;;;0.32;88.45
71105;BME280;58760;48.716;8.962;2023-03-03T06:06:00;96687.66;;;0.39;88.95
71105;BME280;58760;48.716;8.962;2023-03-03T06:08:26;96681.03;;;0.46;88.79
71105;BME280;58760;48.716;8.962;2023-03-03T06:10:51;96688.66;;;0.49;88.38
71105;BME280;58760;48.716;8.962;2023-03-03T06:13:17;96691.50;;;0.46;87.56
71105;BME280;58760;48.716;8.962;2023-03-03T06:15:42;96689.19;;;0.54;88.63
71105;BME280;58760;48.716;8.962;2023-03-03T06:18:08;96688.94;;;0.70;84.68
71105;BME280;58760;48.716;8.962;2023-03-03T06:20:33;96691.75;;;0.67;84.25
71105;BME280;58760;48.716;8.962;2023-03-03T06:23:00;96689.47;;;0.62;84.42
71105;BME280;58760;48.716;8.962;2023-03-03T06:25:25;96692.44;;;0.45;84.71
71105;BME280;58760;48.716;8.962;2023-03-03T06:27:51;96697.75;;;0.56;87.02
71105;BME280;58760;48.716;8.962;2023-03-03T06:30:16;96707.84;;;0.73;87.61
71105;BME280;58760;48.716;8.962;2023-03-03T06:32:43;96704.25;;;0.87;87.30
71105;BME280;58760;48.716;8.962;2023-03-03T06:35:09;96710.59;;;0.95;87.29
71105;BME280;58760;48.716;8.962;2023-03-03T06:37:35;96704.06;;;1.01;87.44
71105;BME280;58760;48.716;8.962;2023-03-03T06:40:00;96700.09;;;1.08;87.54
71105;BME280;58760;48.716;8.962;2023-03-03T06:42:26;96708.09;;;1.18;87.01
71105;BME280;58760;48.716;8.962;2023-03-03T06:44:51;96709.53;;;1.22;85.85
71105;BME280;58760;48.716;8.962;2023-03-03T06:47:17;96709.09;;;1.28;85.80
71105;BME280;58760;48.716;8.962;2023-03-03T06:49:42;96719.22;;;1.32;85.39
71105;BME280;58760;48.716;8.962;2023-03-03T06:52:13;96720.09;;;1.44;84.88
71105;BME280;58760;48.716;8.962;2023-03-03T06:54:39;96719.63;;;1.50;84.24
71105;BME280;58760;48.716;8.962;2023-03-03T06:57:26;96729.22;;;1.62;83.46
71105;BME280;58760;48.716;8.962;2023-03-03T06:59:54;96731.69;;;1.64;82.86
71105;BME280;58760;48.716;8.962;2023-03-03T07:02:21;96720.16;;;1.66;82.30
71105;BME280;58760;48.716;8.962;2023-03-03T07:04:47;96729.94;;;1.64;82.58
71105;BME280;58760;48.716;8.962;2023-03-03T07:07:19;96735.88;;;1.66;82.53
71105;BME280;58760;48.716;8.962;2023-03-03T07:09:47;96737.31;;;1.70;82.73
71105;BME280;58760;48.716;8.962;2023-03-03T07:12:16;96738.75;;;1.74;82.36
71105;BME280;58760;48.716;8.962;2023-03-03T07:14:45;96738.34;;;1.91;81.51
71105;BME280;58760;48.716;8.962;2023-03-03T07:17:18;96741.44;;;1.96;80.29
71105;BME280;58760;48.716;8.962;2023-03-03T07:19:45;96735.38;;;1.96;80.52
71105;BME280;58760;48.716;8.962;2023-03-03T07:22:15;96735.31;;;2.20;79.40
71105;BME280;58760;48.716;8.962;2023-03-03T07:24:42;96742.19;;;2.09;79.26
71105;BME280;58760;48.716;8.962;2023-03-03T07:27:13;96734.84;;;2.15;79.63
71105;BME280;58760;48.716;8.962;2023-03-03T07:29:41;96745.78;;;2.20;79.85
71105;BME280;58760;48.716;8.962;2023-03-03T07:32:21;96748.88;;;2.25;79.24
71105;BME280;58760;48.716;8.962;2023-03-03T07:34:50;96749.84;;;2.35;78.46
71105;BME280;58760;48.716;8.962;2023-03-03T07:37:36;96748.88;;;2.25;78.25
71105;BME280;58760;48.716;8.962;2023-03-03T07:40:26;96745.69;;;2.32;78.42
71105;BME280;58760;48.716;8.962;2023-03-03T07:42:55;96746.03;;;2.39;77.65
71105;BME280;58760;48.716;8.962;2023-03-03T07:45:26;96751.16;;;2.51;77.08
71105;BME280;58760;48.716;8.962;2023-03-03T07:47:53;96749.66;;;2.60;76.30
71105;BME280;58760;48.716;8.962;2023-03-03T07:50:21;96753.19;;;2.59;76.36
71105;BME280;58760;48.716;8.962;2023-03-03T07:52:58;96743.09;;;2.66;75.52
71105;BME280;58760;48.716;8.962;2023-03-03T07:55:35;96744.97;;;2.63;76.16
71105;BME280;58760;48.716;8.962;2023-03-03T08:03:15;96751.63;;;2.90;76.39
71105;BME280;58760;48.716;8.962;2023-03-03T08:05:43;96759.03;;;2.96;76.75
71105;BME280;58760;48.716;8.962;2023-03-03T08:10:48;96762.97;;;3.01;77.08
71105;BME280;58760;48.716;8.962;2023-03-03T08:13:23;96760.44;;;3.11;77.53
71105;BME280;58760;48.716;8.962;2023-03-03T08:15:51;96759.03;;;2.96;77.40
71105;BME280;58760;48.716;8.962;2023-03-03T08:18:31;96758.91;;;3.08;75.79
71105;BME280;58760;48.716;8.962;2023-03-03T08:21:00;96752.09;;;3.17;76.23
71105;BME280;58760;48.716;8.962;2023-03-03T08:23:27;96758.81;;;3.42;74.62
71105;BME280;58760;48.716;8.962;2023-03-03T08:25:52;96756.88;;;3.55;74.52
71105;BME280;58760;48.716;8.962;2023-03-03T08:28:19;96756.09;;;3.75;73.14
71105;BME280;58760;48.716;8.962;2023-03-03T08:30:45;96759.91;;;3.71;71.27
71105;BME280;58760;48.716;8.962;2023-03-03T08:33:11;96753.69;;;3.83;70.12
71105;BME280;58760;48.716;8.962;2023-03-03T08:35:37;96755.25;;;3.75;70.68
71105;BME280;58760;48.716;8.962;2023-03-03T08:38:03;96752.91;;;3.92;69.93
71105;BME280;58760;48.716;8.962;2023-03-03T08:40:28;96748.44;;;4.04;69.88
71105;BME280;58760;48.716;8.962;2023-03-03T08:42:54;96761.78;;;4.12;70.70
71105;BME280;58760;48.716;8.962;2023-03-03T08:45:19;96761.81;;;4.42;70.06
71105;BME280;58760;48.716;8.962;2023-03-03T08:47:45;96760.28;;;4.40;69.46
71105;BME280;58760;48.716;8.962;2023-03-03T08:50:10;96763.47;;;4.43;70.19
71105;BME280;58760;48.716;8.962;2023-03-03T08:52:36;96753.22;;;4.40;68.38
71105;BME280;58760;48.716;8.962;2023-03-03T08:55:02;96770.59;;;4.32;68.52
71105;BME280;58760;48.716;8.962;2023-03-03T08:57:27;96770.41;;;4.23;69.36
71105;BME280;58760;48.716;8.962;2023-03-03T08:59:52;96764.91;;;4.27;69.43
71105;BME280;58760;48.716;8.962;2023-03-03T09:02:18;96769.38;;;4.36;70.36
71105;BME280;58760;48.716;8.962;2023-03-03T09:04:43;96764.94;;;4.57;68.81
71105;BME280;58760;48.716;8.962;2023-03-03T09:07:08;96773.72;;;4.67;67.84
71105;BME280;58760;48.716;8.962;2023-03-03T09:09:34;96764.16;;;4.66;67.38
71105;BME280;58760;48.716;8.962;2023-03-03T09:12:51;96771.88;;;4.58;68.06
71105;BME280;58760;48.716;8.962;2023-03-03T09:14:51;96774.34;;;4.59;68.74
71105;BME280;58760;48.716;8.962;2023-03-03T09:17:24;96781.88;;;4.64;68.47
71105;BME280;58760;48.716;8.962;2023-03-03T09:19:50;96788.22;;;4.61;68.04
71105;BME280;58760;48.716;8.962;2023-03-03T09:22:21;96787.81;;;4.66;68.05
71105;BME280;58760;48.716;8.962;2023-03-03T09:24:48;96789.91;;;4.72;66.96
71105;BME280;58760;48.716;8.962;2023-03-03T09:27:30;96795.56;;;4.98;65.82
71105;BME280;58760;48.716;8.962;2023-03-03T09:30:00;96789.16;;;4.81;65.66
71105;BME280;58760;48.716;8.962;2023-03-03T09:32:33;96793.16;;;4.85;65.37
71105;BME280;58760;48.716;8.962;2023-03-03T09:35:00;96792.50;;;4.93;65.73
71105;BME280;58760;48.716;8.962;2023-03-03T09:37:45;96789.28;;;5.10;64.47
71105;BME280;58760;48.716;8.962;2023-03-03T09:43:34;96794.88;;;4.96;64.23
71105;BME280;58760;48.716;8.962;2023-03-03T09:49:04;96791.75;;;5.11;64.51
71105;BME280;58760;48.716;8.962;2023-03-03T09:55:28;96796.47;;;5.17;65.09
71105;BME280;58760;48.716;8.962;2023-03-03T09:57:23;96793.47;;;5.22;65.35
71105;BME280;58760;48.716;8.962;2023-03-03T10:11:18;96789.09;;;5.42;64.80
71105;BME280;58760;48.716;8.962;2023-03-03T10:16:43;96791.94;;;5.78;64.08
71105;BME280;58760;48.716;8.962;2023-03-03T10:22:02;96788.78;;;6.13;60.86
71105;BME280;58760;48.716;8.962;2023-03-03T10:27:44;96787.50;;;6.56;59.14
71105;BME280;58760;48.716;8.962;2023-03-03T10:33:10;96785.88;;;6.92;58.40
71105;BME280;58760;48.716;8.962;2023-03-03T10:38:28;96790.69;;;7.33;56.19
71105;BME280;58760;48.716;8.962;2023-03-03T10:44:21;96781.19;;;7.67;55.87
71105;BME280;58760;48.716;8.962;2023-03-03T10:50:06;96794.75;;;8.00;54.53
71105;BME280;58760;48.716;8.962;2023-03-03T10:52:38;96789.84;;;8.05;53.11
71105;BME280;58760;48.716;8.962;2023-03-03T10:55:23;96780.69;;;7.81;53.80
71105;BME280;58760;48.716;8.962;2023-03-03T11:00:25;96774.19;;;7.76;53.70
71105;BME280;58760;48.716;8.962;2023-03-03T11:05:54;96779.78;;;8.08;53.22
71105;BME280;58760;48.716;8.962;2023-03-03T11:08:28;96782.97;;;8.29;51.92
71105;BME280;58760;48.716;8.962;2023-03-03T11:16:44;96785.16;;;8.52;51.04
71105;BME280;58760;48.716;8.962;2023-03-03T11:24:47;96791.13;;;9.05;49.89
71105;BME280;58760;48.716;8.962;2023-03-03T11:27:37;96786.97;;;9.03;49.04
71105;BME280;58760;48.716;8.962;2023-03-03T11:31:09;96776.94;;;9.14;49.18
71105;BME280;58760;48.716;8.962;2023-03-03T11:35:52;96788.63;;;9.37;48.41
71105;BME280;58760;48.716;8.962;2023-03-03T11:38:35;96789.88;;;9.59;47.70
71105;BME280;58760;48.716;8.962;2023-03-03T11:49:47;96776.09;;;9.14;48.81
71105;BME280;58760;48.716;8.962;2023-03-03T11:59:59;96769.19;;;9.21;48.84
71105;BME280;58760;48.716;8.962;2023-03-03T12:05:44;96758.16;;;9.33;48.88
71105;BME280;58760;48.716;8.962;2023-03-03T12:11:22;96748.41;;;10.08;47.98
71105;BME280;58760;48.716;8.962;2023-03-03T12:16:37;96739.81;;;10.55;46.92
71105;BME280;58760;48.716;8.962;2023-03-03T12:24:27;96732.78;;;11.02;45.06
71105;BME280;58760;48.716;8.962;2023-03-03T12:32:38;96738.50;;;11.22;43.45
71105;BME280;58760;48.716;8.962;2023-03-03T12:40:34;96730.16;;;11.41;43.66
71105;BME280;58760;48.716;8.962;2023-03-03T12:45:49;96738.63;;;11.36;43.40
71105;BME280;58760;48.716;8.962;2023-03-03T12:56:54;96724.75;;;15.76;35.02
71105;BME280;58760;48.716;8.962;2023-03-03T13:05:02;96719.09;;;17.36;30.58
71105;BME280;58760;48.716;8.962;2023-03-03T13:10:37;96719.59;;;16.74;31.31
71105;BME280;58760;48.716;8.962;2023-03-03T13:16:05;96704.81;;;18.69;28.57
71105;BME280;58760;48.716;8.962;2023-03-03T13:22:29;96703.09;;;18.74;28.66
71105;BME280;58760;48.716;8.962;2023-03-03T13:27:12;96703.72;;;18.14;29.31
71105;BME280;58760;48.716;8.962;2023-03-03T13:29:58;96704.75;;;18.75;28.08
71105;BME280;58760;48.716;8.962;2023-03-03T13:32:36;96696.19;;;18.85;28.40
71105;BME280;58760;48.716;8.962;2023-03-03T13:35:50;96695.31;;;19.52;27.50
71105;BME280;58760;48.716;8.962;2023-03-03T13:37:56;96698.50;;;20.27;26.64
71105;BME280;58760;48.716;8.962;2023-03-03T13:40:26;96686.44;;;20.71;25.67
71105;BME280;58760;48.716;8.962;2023-03-03T13:48:34;96688.47;;;20.16;26.14
71105;BME280;58760;48.716;8.962;2023-03-03T13:54:05;96688.44;;;20.99;26.31
71105;BME280;58760;48.716;8.962;2023-03-03T14:02:39;96674.94;;;22.25;23.66
71105;BME280;58760;48.716;8.962;2023-03-03T14:05:13;96672.31;;;22.13;24.28
71105;BME280;58760;48.716;8.962;2023-03-03T14:10:28;96662.53;;;23.24;23.01
71105;BME280;58760;48.716;8.962;2023-03-03T14:13:10;96665.16;;;23.19;23.24
71105;BME280;58760;48.716;8.962;2023-03-03T14:18:30;96661.47;;;23.63;22.52
71105;BME280;58760;48.716;8.962;2023-03-03T14:21:15;96659.19;;;23.38;22.29
71105;BME280;58760;48.716;8.962;2023-03-03T14:24:24;96664.38;;;23.02;22.59
71105;BME280;58760;48.716;8.962;2023-03-03T14:26:51;96665.44;;;22.67;22.64
71105;BME280;58760;48.716;8.962;2023-03-03T14:31:52;96665.47;;;22.39;22.53
71105;BME280;58760;48.716;8.962;2023-03-03T14:37:28;96664.59;;;23.17;21.90
71105;BME280;58760;48.716;8.962;2023-03-03T14:42:47;96665.34;;;22.62;22.60
71105;BME280;58760;48.716;8.962;2023-03-03T14:45:30;96662.00;;;22.72;22.34
71105;BME280;58760;48.716;8.962;2023-03-03T14:47:57;96651.91;;;22.84;22.27
71105;BME280;58760;48.716;8.962;2023-03-03T14:50:33;96664.13;;;21.85;23.22
71105;BME280;58760;48.716;8.962;2023-03-03T14:53:14;96666.41;;;21.76;23.84
71105;BME280;58760;48.716;8.962;2023-03-03T14:55:42;96657.13;;;21.72;23.72
71105;BME280;58760;48.716;8.962;2023-03-03T14:58:33;96655.13;;;21.79;23.63
71105;BME280;58760;48.716;8.962;2023-03-03T15:01:14;96659.94;;;21.49;24.61
71105;BME280;58760;48.716;8.962;2023-03-03T15:03:45;96664.97;;;21.46;24.44
71105;BME280;58760;48.716;8.962;2023-03-03T15:06:34;96657.41;;;22.11;23.04
71105;BME280;58760;48.716;8.962;2023-03-03T15:11:55;96664.22;;;20.46;25.00
71105;BME280;58760;48.716;8.962;2023-03-03T15:14:44;96669.25;;;17.02;30.08
71105;BME280;58760;48.716;8.962;2023-03-03T15:17:23;96671.06;;;15.43;32.43
71105;BME280;58760;48.716;8.962;2023-03-03T15:22:48;96669.28;;;13.47;36.02
71105;BME280;58760;48.716;8.962;2023-03-03T15:25:25;96679.84;;;12.82;37.45
71105;BME280;58760;48.716;8.962;2023-03-03T15:31:01;96679.66;;;11.72;40.51
71105;BME280;58760;48.716;8.962;2023-03-03T15:33:40;96678.13;;;11.77;41.17
71105;BME280;58760;48.716;8.962;2023-03-03T15:39:10;96675.03;;;10.96;41.91
71105;BME280;58760;48.716;8.962;2023-03-03T15:42:10;96671.44;;;10.81;42.70
71105;BME280;58760;48.716;8.962;2023-03-03T15:49:51;96691.44;;;10.28;44.20
71105;BME280;58760;48.716;8.962;2023-03-03T15:57:58;96692.34;;;9.55;46.21
71105;BME280;58760;48.716;8.962;2023-03-03T16:01:10;96695.66;;;9.57;46.33
71105;BME280;58760;48.716;8.962;2023-03-03T16:03:56;96696.97;;;9.44;46.75
71105;BME280;58760;48.716;8.962;2023-03-03T16:06:29;96706.72;;;9.44;46.81
71105;BME280;58760;48.716;8.962;2023-03-03T16:25:59;96717.78;;;8.64;49.58
71105;BME280;58760;48.716;8.962;2023-03-03T16:31:18;96724.72;;;8.39;50.85
71105;BME280;58760;48.716;8.962;2023-03-03T16:37:00;96727.38;;;8.21;51.96
71105;BME280;58760;48.716;8.962;2023-03-03T16:42:10;96725.28;;;8.07;51.90
71105;BME280;58760;48.716;8.962;2023-03-03T16:44:48;96736.16;;;8.04;51.95
71105;BME280;58760;48.716;8.962;2023-03-03T16:47:27;96739.47;;;7.88;52.38
71105;BME280;58760;48.716;8.962;2023-03-03T16:50:15;96740.75;;;7.84;52.39
71105;BME280;58760;48.716;8.962;2023-03-03T16:53:18;96738.91;;;7.67;53.73
71105;BME280;58760;48.716;8.962;2023-03-03T16:56:31;96738.50;;;7.54;53.76
71105;BME280;58760;48.716;8.962;2023-03-03T17:07:33;96760.03;;;7.22;54.60
71105;BME280;58760;48.716;8.962;2023-03-03T17:10:30;96765.94;;;7.07;55.37
71105;BME280;58760;48.716;8.962;2023-03-03T17:15:52;96776.31;;;6.81;57.05
71105;BME280;58760;48.716;8.962;2023-03-03T17:21:02;96767.81;;;6.50;57.65
71105;BME280;58760;48.716;8.962;2023-03-03T17:29:06;96778.25;;;5.94;59.50
71105;BME280;58760;48.716;8.962;2023-03-03T17:34:23;96797.56;;;5.55;61.14